sensor_id;sensor_type;location;lat;lon;timestamp;P1;durP1;ratioP1;P2;durP2;ratioP2
483;SDS011;228;48.922;12.198;2023-03-05T00:00:50;21.37;;;10.47;;
483;SDS011;228;48.922;12.198;2023-03-05T00:03:16;22.17;;;11.57;;
483;SDS011;228;48.922;12.198;2023-03-05T00:05:42;24.37;;;11.63;;
483;SDS011;228;48.922;12.198;2023-03-05T00:08:08;23.97;;;10.83;;
483;SDS011;228;48.922;12.198;2023-03-05T00:10:34;23.03;;;10.83;;
483;SDS011;228;48.922;12.198;2023-03-05T00:13:00;20.97;;;11.33;;
483;SDS011;228;48.922;12.198;2023-03-05T00:15:26;23.23;;;11.73;;
483;SDS011;228;48.922;12.198;2023-03-05T00:17:52;26.93;;;11.73;;
483;SDS011;228;48.922;12.198;2023-03-05T00:20:18;23.03;;;11.50;;
483;SDS011;228;48.922;12.198;2023-03-05T00:22:44;27.57;;;11.37;;
483;SDS011;228;48.922;12.198;2023-03-05T00:25:10;30.97;;;12.50;;
483;SDS011;228;48.922;12.198;2023-03-05T00:27:38;25.43;;;12.47;;
483;SDS011;228;48.922;12.198;2023-03-05T00:30:04;26.67;;;12.10;;
483;SDS011;228;48.922;12.198;2023-03-05T00:32:31;25.90;;;11.67;;
483;SDS011;228;48.922;12.198;2023-03-05T00:34:56;23.87;;;11.97;;
483;SDS011;228;48.922;12.198;2023-03-05T00:37:22;25.43;;;11.57;;
483;SDS011;228;48.922;12.198;2023-03-05T00:39:48;27.13;;;11.90;;
483;SDS011;228;48.922;12.198;2023-03-05T00:42:14;28.87;;;12.03;;
483;SDS011;228;48.922;12.198;2023-03-05T00:44:40;22.17;;;11.83;;
483;SDS011;228;48.922;12.198;2023-03-05T00:47:06;24.47;;;11.87;;
483;SDS011;228;48.922;12.198;2023-03-05T00:49:32;29.23;;;13.37;;
483;SDS011;228;48.922;12.198;2023-03-05T00:51:58;27.63;;;12.53;;
483;SDS011;228;48.922;12.198;2023-03-05T00:54:24;26.47;;;12.07;;
483;SDS011;228;48.922;12.198;2023-03-05T00:56:50;24.77;;;11.60;;
483;SDS011;228;48.922;12.198;2023-03-05T00:59:16;29.83;;;12.97;;
483;SDS011;228;48.922;12.198;2023-03-05T01:01:42;28.80;;;13.10;;
483;SDS011;228;48.922;12.198;2023-03-05T01:04:08;23.27;;;11.73;;
483;SDS011;228;48.922;12.198;2023-03-05T01:06:34;24.33;;;11.80;;
483;SDS011;228;48.922;12.198;2023-03-05T01:09:02;24.00;;;13.07;;
483;SDS011;228;48.922;12.198;2023-03-05T01:11:28;24.33;;;11.77;;
483;SDS011;228;48.922;12.198;2023-03-05T01:13:54;30.33;;;12.87;;
483;SDS011;228;48.922;12.198;2023-03-05T01:16:20;27.07;;;12.27;;
483;SDS011;228;48.922;12.198;2023-03-05T01:18:46;23.43;;;11.73;;
483;SDS011;228;48.922;12.198;2023-03-05T01:21:12;27.70;;;11.80;;
483;SDS011;228;48.922;12.198;2023-03-05T01:23:38;32.03;;;12.57;;
483;SDS011;228;48.922;12.198;2023-03-05T01:26:04;21.30;;;11.23;;
483;SDS011;228;48.922;12.198;2023-03-05T01:28:32;24.77;;;11.67;;
483;SDS011;228;48.922;12.198;2023-03-05T01:30:59;28.03;;;13.30;;
483;SDS011;228;48.922;12.198;2023-03-05T01:33:25;27.70;;;12.30;;
483;SDS011;228;48.922;12.198;2023-03-05T01:35:51;26.93;;;12.10;;
483;SDS011;228;48.922;12.198;2023-03-05T01:38:17;25.37;;;11.30;;
483;SDS011;228;48.922;12.198;2023-03-05T01:40:43;26.17;;;12.20;;
483;SDS011;228;48.922;12.198;2023-03-05T01:45:36;22.83;;;11.10;;
483;SDS011;228;48.922;12.198;2023-03-05T01:48:03;25.60;;;12.37;;
483;SDS011;228;48.922;12.198;2023-03-05T01:50:30;26.47;;;12.77;;
483;SDS011;228;48.922;12.198;2023-03-05T01:52:58;24.20;;;11.80;;
483;SDS011;228;48.922;12.198;2023-03-05T01:55:27;27.53;;;11.90;;
483;SDS011;228;48.922;12.198;2023-03-05T02:00:33;28.37;;;13.27;;
483;SDS011;228;48.922;12.198;2023-03-05T02:03:06;25.47;;;12.43;;
483;SDS011;228;48.922;12.198;2023-03-05T02:05:35;23.93;;;12.53;;
483;SDS011;228;48.922;12.198;2023-03-05T02:08:06;32.43;;;13.70;;
483;SDS011;228;48.922;12.198;2023-03-05T02:10:39;27.77;;;12.40;;
483;SDS011;228;48.922;12.198;2023-03-05T02:13:11;21.30;;;10.97;;
483;SDS011;228;48.922;12.198;2023-03-05T02:15:50;28.93;;;12.70;;
483;SDS011;228;48.922;12.198;2023-03-05T02:18:18;26.20;;;12.40;;
483;SDS011;228;48.922;12.198;2023-03-05T02:23:17;25.43;;;12.43;;
483;SDS011;228;48.922;12.198;2023-03-05T02:25:45;24.07;;;11.37;;
483;SDS011;228;48.922;12.198;2023-03-05T02:28:34;25.43;;;12.73;;
483;SDS011;228;48.922;12.198;2023-03-05T02:30:58;29.07;;;13.10;;
483;SDS011;228;48.922;12.198;2023-03-05T02:33:24;28.60;;;12.37;;
483;SDS011;228;48.922;12.198;2023-03-05T02:35:51;27.50;;;12.93;;
483;SDS011;228;48.922;12.198;2023-03-05T02:38:18;28.50;;;13.47;;
483;SDS011;228;48.922;12.198;2023-03-05T02:40:45;28.43;;;12.80;;
483;SDS011;228;48.922;12.198;2023-03-05T02:43:13;29.33;;;13.43;;
483;SDS011;228;48.922;12.198;2023-03-05T02:45:39;28.73;;;12.53;;
483;SDS011;228;48.922;12.198;2023-03-05T02:48:05;28.00;;;12.67;;
483;SDS011;228;48.922;12.198;2023-03-05T02:50:32;26.90;;;12.50;;
483;SDS011;228;48.922;12.198;2023-03-05T02:52:59;27.27;;;13.23;;
483;SDS011;228;48.922;12.198;2023-03-05T02:55:25;26.07;;;12.80;;
483;SDS011;228;48.922;12.198;2023-03-05T02:57:51;27.63;;;12.33;;
483;SDS011;228;48.922;12.198;2023-03-05T03:00:17;29.00;;;13.83;;
483;SDS011;228;48.922;12.198;2023-03-05T03:02:44;30.60;;;12.80;;
483;SDS011;228;48.922;12.198;2023-03-05T03:05:10;26.57;;;12.23;;
483;SDS011;228;48.922;12.198;2023-03-05T03:07:36;32.07;;;14.07;;
483;SDS011;228;48.922;12.198;2023-03-05T03:10:02;30.87;;;13.73;;
483;SDS011;228;48.922;12.198;2023-03-05T03:12:29;30.97;;;14.00;;
483;SDS011;228;48.922;12.198;2023-03-05T03:14:55;30.73;;;13.40;;
483;SDS011;228;48.922;12.198;2023-03-05T03:17:21;28.00;;;13.07;;
483;SDS011;228;48.922;12.198;2023-03-05T03:19:47;24.50;;;11.93;;
483;SDS011;228;48.922;12.198;2023-03-05T03:22:14;28.13;;;13.10;;
483;SDS011;228;48.922;12.198;2023-03-05T03:24:41;27.40;;;13.37;;
483;SDS011;228;48.922;12.198;2023-03-05T03:27:08;28.37;;;12.73;;
483;SDS011;228;48.922;12.198;2023-03-05T03:29:35;32.40;;;13.20;;
483;SDS011;228;48.922;12.198;2023-03-05T03:32:01;29.23;;;12.77;;
483;SDS011;228;48.922;12.198;2023-03-05T03:34:28;28.17;;;12.83;;
483;SDS011;228;48.922;12.198;2023-03-05T03:36:54;29.77;;;13.43;;
483;SDS011;228;48.922;12.198;2023-03-05T03:39:21;27.83;;;12.50;;
483;SDS011;228;48.922;12.198;2023-03-05T03:41:48;34.47;;;13.13;;
483;SDS011;228;48.922;12.198;2023-03-05T03:44:16;26.87;;;13.30;;
483;SDS011;228;48.922;12.198;2023-03-05T03:46:44;29.80;;;14.53;;
483;SDS011;228;48.922;12.198;2023-03-05T03:49:16;30.03;;;13.27;;
483;SDS011;228;48.922;12.198;2023-03-05T03:51:49;26.20;;;12.57;;
483;SDS011;228;48.922;12.198;2023-03-05T03:54:18;29.23;;;12.70;;
483;SDS011;228;48.922;12.198;2023-03-05T03:56:45;29.77;;;13.73;;
483;SDS011;228;48.922;12.198;2023-03-05T03:59:11;31.30;;;13.77;;
483;SDS011;228;48.922;12.198;2023-03-05T04:01:38;31.97;;;15.00;;
483;SDS011;228;48.922;12.198;2023-03-05T04:04:04;26.73;;;12.63;;
483;SDS011;228;48.922;12.198;2023-03-05T04:06:31;31.23;;;14.93;;
483;SDS011;228;48.922;12.198;2023-03-05T04:08:58;32.27;;;13.63;;
483;SDS011;228;48.922;12.198;2023-03-05T04:11:24;33.17;;;13.17;;
483;SDS011;228;48.922;12.198;2023-03-05T04:13:51;34.57;;;14.27;;
483;SDS011;228;48.922;12.198;2023-03-05T04:16:19;30.60;;;13.03;;
483;SDS011;228;48.922;12.198;2023-03-05T04:18:45;29.00;;;12.63;;
483;SDS011;228;48.922;12.198;2023-03-05T04:21:11;32.20;;;12.87;;
483;SDS011;228;48.922;12.198;2023-03-05T04:23:38;30.23;;;13.17;;
483;SDS011;228;48.922;12.198;2023-03-05T04:26:04;31.37;;;12.77;;
483;SDS011;228;48.922;12.198;2023-03-05T04:28:31;29.60;;;13.63;;
483;SDS011;228;48.922;12.198;2023-03-05T04:30:58;23.13;;;12.67;;
483;SDS011;228;48.922;12.198;2023-03-05T04:33:24;29.33;;;13.70;;
483;SDS011;228;48.922;12.198;2023-03-05T04:35:50;33.80;;;14.03;;
483;SDS011;228;48.922;12.198;2023-03-05T04:38:17;27.07;;;11.93;;
483;SDS011;228;48.922;12.198;2023-03-05T04:40:44;27.57;;;13.17;;
483;SDS011;228;48.922;12.198;2023-03-05T04:43:10;28.83;;;12.90;;
483;SDS011;228;48.922;12.198;2023-03-05T04:45:40;26.40;;;12.50;;
483;SDS011;228;48.922;12.198;2023-03-05T04:48:08;24.30;;;11.60;;
483;SDS011;228;48.922;12.198;2023-03-05T04:50:35;30.40;;;14.07;;
483;SDS011;228;48.922;12.198;2023-03-05T04:53:02;27.57;;;13.27;;
483;SDS011;228;48.922;12.198;2023-03-05T04:55:28;27.20;;;14.20;;
483;SDS011;228;48.922;12.198;2023-03-05T04:57:54;29.27;;;13.17;;
483;SDS011;228;48.922;12.198;2023-03-05T05:00:21;27.17;;;13.00;;
483;SDS011;228;48.922;12.198;2023-03-05T05:02:49;28.47;;;14.33;;
483;SDS011;228;48.922;12.198;2023-03-05T05:05:17;31.07;;;12.90;;
483;SDS011;228;48.922;12.198;2023-03-05T05:07:47;31.40;;;12.67;;
483;SDS011;228;48.922;12.198;2023-03-05T05:10:13;33.73;;;14.47;;
483;SDS011;228;48.922;12.198;2023-03-05T05:12:40;28.83;;;12.93;;
483;SDS011;228;48.922;12.198;2023-03-05T05:15:07;30.93;;;13.30;;
483;SDS011;228;48.922;12.198;2023-03-05T05:17:34;27.73;;;12.07;;
483;SDS011;228;48.922;12.198;2023-03-05T05:20:00;34.80;;;14.13;;
483;SDS011;228;48.922;12.198;2023-03-05T05:22:32;32.10;;;13.33;;
483;SDS011;228;48.922;12.198;2023-03-05T05:24:58;33.70;;;13.13;;
483;SDS011;228;48.922;12.198;2023-03-05T05:27:25;29.63;;;13.23;;
483;SDS011;228;48.922;12.198;2023-03-05T05:29:51;30.17;;;12.70;;
483;SDS011;228;48.922;12.198;2023-03-05T05:32:18;32.63;;;13.90;;
483;SDS011;228;48.922;12.198;2023-03-05T05:34:46;32.33;;;13.07;;
483;SDS011;228;48.922;12.198;2023-03-05T05:37:13;31.70;;;14.10;;
483;SDS011;228;48.922;12.198;2023-03-05T05:39:39;26.07;;;12.70;;
483;SDS011;228;48.922;12.198;2023-03-05T05:42:05;27.13;;;13.17;;
483;SDS011;228;48.922;12.198;2023-03-05T05:44:31;34.13;;;14.87;;
483;SDS011;228;48.922;12.198;2023-03-05T05:46:59;33.03;;;13.77;;
483;SDS011;228;48.922;12.198;2023-03-05T05:49:25;30.40;;;13.47;;
483;SDS011;228;48.922;12.198;2023-03-05T05:51:51;31.27;;;14.00;;
483;SDS011;228;48.922;12.198;2023-03-05T05:54:17;27.70;;;12.27;;
483;SDS011;228;48.922;12.198;2023-03-05T05:56:43;27.60;;;12.40;;
483;SDS011;228;48.922;12.198;2023-03-05T05:59:09;26.87;;;12.30;;
483;SDS011;228;48.922;12.198;2023-03-05T06:01:35;28.40;;;13.00;;
483;SDS011;228;48.922;12.198;2023-03-05T06:04:01;31.03;;;14.60;;
483;SDS011;228;48.922;12.198;2023-03-05T06:06:27;28.83;;;12.90;;
483;SDS011;228;48.922;12.198;2023-03-05T06:08:54;33.20;;;13.70;;
483;SDS011;228;48.922;12.198;2023-03-05T06:11:20;31.93;;;12.80;;
483;SDS011;228;48.922;12.198;2023-03-05T06:13:48;35.30;;;13.97;;
483;SDS011;228;48.922;12.198;2023-03-05T06:16:16;30.77;;;14.10;;
483;SDS011;228;48.922;12.198;2023-03-05T06:18:49;28.43;;;12.93;;
483;SDS011;228;48.922;12.198;2023-03-05T06:21:16;33.00;;;13.20;;
483;SDS011;228;48.922;12.198;2023-03-05T06:23:44;27.13;;;14.57;;
483;SDS011;228;48.922;12.198;2023-03-05T06:26:12;29.07;;;13.67;;
483;SDS011;228;48.922;12.198;2023-03-05T06:28:41;27.40;;;12.47;;
483;SDS011;228;48.922;12.198;2023-03-05T06:33:39;29.07;;;13.43;;
483;SDS011;228;48.922;12.198;2023-03-05T06:36:07;31.53;;;13.37;;
483;SDS011;228;48.922;12.198;2023-03-05T06:38:36;29.17;;;13.67;;
483;SDS011;228;48.922;12.198;2023-03-05T06:43:34;34.07;;;13.53;;
483;SDS011;228;48.922;12.198;2023-03-05T06:46:05;39.87;;;19.00;;
483;SDS011;228;48.922;12.198;2023-03-05T06:48:32;30.17;;;13.30;;
483;SDS011;228;48.922;12.198;2023-03-05T06:50:59;33.83;;;13.90;;
483;SDS011;228;48.922;12.198;2023-03-05T06:53:25;25.07;;;12.83;;
483;SDS011;228;48.922;12.198;2023-03-05T06:55:52;32.77;;;13.60;;
483;SDS011;228;48.922;12.198;2023-03-05T06:58:18;36.13;;;14.23;;
483;SDS011;228;48.922;12.198;2023-03-05T07:00:45;30.47;;;13.87;;
483;SDS011;228;48.922;12.198;2023-03-05T07:03:11;29.27;;;13.90;;
483;SDS011;228;48.922;12.198;2023-03-05T07:05:38;27.93;;;12.90;;
483;SDS011;228;48.922;12.198;2023-03-05T07:08:05;33.90;;;14.10;;
483;SDS011;228;48.922;12.198;2023-03-05T07:10:36;31.47;;;13.87;;
483;SDS011;228;48.922;12.198;2023-03-05T07:13:06;28.67;;;13.00;;
483;SDS011;228;48.922;12.198;2023-03-05T07:15:35;38.97;;;14.80;;
483;SDS011;228;48.922;12.198;2023-03-05T07:18:03;30.00;;;13.93;;
483;SDS011;228;48.922;12.198;2023-03-05T07:20:29;27.73;;;13.37;;
483;SDS011;228;48.922;12.198;2023-03-05T07:22:55;35.57;;;14.57;;
483;SDS011;228;48.922;12.198;2023-03-05T07:25:21;30.37;;;12.53;;
483;SDS011;228;48.922;12.198;2023-03-05T07:27:48;27.33;;;12.90;;
483;SDS011;228;48.922;12.198;2023-03-05T07:30:14;30.83;;;13.60;;
483;SDS011;228;48.922;12.198;2023-03-05T07:32:41;29.93;;;12.97;;
483;SDS011;228;48.922;12.198;2023-03-05T07:35:07;24.10;;;12.13;;
483;SDS011;228;48.922;12.198;2023-03-05T07:37:34;28.83;;;12.77;;
483;SDS011;228;48.922;12.198;2023-03-05T07:40:00;30.07;;;13.37;;
483;SDS011;228;48.922;12.198;2023-03-05T07:42:26;31.17;;;13.53;;
483;SDS011;228;48.922;12.198;2023-03-05T07:45:06;32.93;;;13.83;;
483;SDS011;228;48.922;12.198;2023-03-05T07:47:33;29.90;;;13.43;;
483;SDS011;228;48.922;12.198;2023-03-05T07:49:59;33.77;;;14.27;;
483;SDS011;228;48.922;12.198;2023-03-05T07:52:25;30.03;;;13.80;;
483;SDS011;228;48.922;12.198;2023-03-05T07:54:51;30.17;;;13.17;;
483;SDS011;228;48.922;12.198;2023-03-05T07:57:17;34.23;;;13.37;;
483;SDS011;228;48.922;12.198;2023-03-05T07:59:43;29.37;;;13.00;;
483;SDS011;228;48.922;12.198;2023-03-05T08:02:09;32.83;;;13.50;;
483;SDS011;228;48.922;12.198;2023-03-05T08:04:38;30.90;;;13.33;;
483;SDS011;228;48.922;12.198;2023-03-05T08:07:05;28.40;;;13.37;;
483;SDS011;228;48.922;12.198;2023-03-05T08:09:31;35.13;;;12.80;;
483;SDS011;228;48.922;12.198;2023-03-05T08:11:57;32.87;;;13.37;;
483;SDS011;228;48.922;12.198;2023-03-05T08:14:24;26.67;;;12.37;;
483;SDS011;228;48.922;12.198;2023-03-05T08:16:49;27.50;;;13.80;;
483;SDS011;228;48.922;12.198;2023-03-05T08:19:19;28.40;;;13.40;;
483;SDS011;228;48.922;12.198;2023-03-05T08:21:45;28.33;;;13.03;;
483;SDS011;228;48.922;12.198;2023-03-05T08:24:12;27.20;;;14.67;;
483;SDS011;228;48.922;12.198;2023-03-05T08:26:38;32.53;;;12.77;;
483;SDS011;228;48.922;12.198;2023-03-05T08:29:06;31.97;;;13.13;;
483;SDS011;228;48.922;12.198;2023-03-05T08:31:33;27.00;;;12.87;;
483;SDS011;228;48.922;12.198;2023-03-05T08:34:00;29.20;;;13.30;;
483;SDS011;228;48.922;12.198;2023-03-05T08:36:27;26.67;;;12.43;;
483;SDS011;228;48.922;12.198;2023-03-05T08:38:54;26.87;;;12.37;;
483;SDS011;228;48.922;12.198;2023-03-05T08:41:20;30.77;;;12.43;;
483;SDS011;228;48.922;12.198;2023-03-05T08:43:47;28.50;;;11.63;;
483;SDS011;228;48.922;12.198;2023-03-05T08:46:13;24.20;;;11.57;;
483;SDS011;228;48.922;12.198;2023-03-05T08:48:40;29.80;;;12.93;;
483;SDS011;228;48.922;12.198;2023-03-05T08:51:08;25.23;;;11.97;;
483;SDS011;228;48.922;12.198;2023-03-05T08:53:38;35.30;;;14.07;;
483;SDS011;228;48.922;12.198;2023-03-05T08:56:04;26.93;;;13.27;;
483;SDS011;228;48.922;12.198;2023-03-05T08:58:31;29.60;;;12.83;;
483;SDS011;228;48.922;12.198;2023-03-05T09:00:57;27.93;;;13.27;;
483;SDS011;228;48.922;12.198;2023-03-05T09:03:23;26.23;;;12.60;;
483;SDS011;228;48.922;12.198;2023-03-05T09:05:50;30.83;;;13.60;;
483;SDS011;228;48.922;12.198;2023-03-05T09:08:16;24.37;;;12.00;;
483;SDS011;228;48.922;12.198;2023-03-05T09:10:43;25.00;;;12.03;;
483;SDS011;228;48.922;12.198;2023-03-05T09:13:10;26.20;;;12.17;;
483;SDS011;228;48.922;12.198;2023-03-05T09:15:37;29.40;;;13.77;;
483;SDS011;228;48.922;12.198;2023-03-05T09:18:03;28.40;;;12.53;;
483;SDS011;228;48.922;12.198;2023-03-05T09:20:29;28.70;;;12.27;;
483;SDS011;228;48.922;12.198;2023-03-05T09:22:55;30.47;;;13.30;;
483;SDS011;228;48.922;12.198;2023-03-05T09:25:21;28.20;;;13.23;;
483;SDS011;228;48.922;12.198;2023-03-05T09:27:47;33.87;;;13.37;;
483;SDS011;228;48.922;12.198;2023-03-05T09:30:14;26.37;;;12.77;;
483;SDS011;228;48.922;12.198;2023-03-05T09:32:41;26.67;;;12.73;;
483;SDS011;228;48.922;12.198;2023-03-05T09:35:07;29.27;;;13.97;;
483;SDS011;228;48.922;12.198;2023-03-05T09:37:34;34.23;;;14.53;;
483;SDS011;228;48.922;12.198;2023-03-05T09:40:01;27.40;;;13.50;;
483;SDS011;228;48.922;12.198;2023-03-05T09:42:32;29.97;;;12.40;;
483;SDS011;228;48.922;12.198;2023-03-05T09:48:10;26.30;;;12.83;;
483;SDS011;228;48.922;12.198;2023-03-05T09:56:16;25.40;;;12.20;;
483;SDS011;228;48.922;12.198;2023-03-05T09:58:53;30.53;;;12.77;;
483;SDS011;228;48.922;12.198;2023-03-05T10:01:28;28.57;;;12.30;;
483;SDS011;228;48.922;12.198;2023-03-05T10:04:11;29.07;;;13.43;;
483;SDS011;228;48.922;12.198;2023-03-05T10:12:39;22.90;;;11.03;;
483;SDS011;228;48.922;12.198;2023-03-05T10:15:16;27.37;;;13.60;;
483;SDS011;228;48.922;12.198;2023-03-05T10:27:54;21.67;;;11.47;;
483;SDS011;228;48.922;12.198;2023-03-05T10:33:16;24.73;;;11.67;;
483;SDS011;228;48.922;12.198;2023-03-05T10:36:15;24.23;;;11.97;;
483;SDS011;228;48.922;12.198;2023-03-05T10:45:11;23.87;;;11.93;;
483;SDS011;228;48.922;12.198;2023-03-05T10:47:54;30.53;;;11.50;;
483;SDS011;228;48.922;12.198;2023-03-05T10:50:35;25.47;;;12.53;;
483;SDS011;228;48.922;12.198;2023-03-05T10:55:52;24.27;;;11.23;;
483;SDS011;228;48.922;12.198;2023-03-05T10:58:21;25.37;;;11.83;;
483;SDS011;228;48.922;12.198;2023-03-05T11:01:05;23.43;;;10.43;;
483;SDS011;228;48.922;12.198;2023-03-05T11:06:28;23.33;;;10.93;;
483;SDS011;228;48.922;12.198;2023-03-05T11:09:17;23.27;;;11.03;;
483;SDS011;228;48.922;12.198;2023-03-05T11:12:04;25.07;;;10.33;;
483;SDS011;228;48.922;12.198;2023-03-05T11:20:30;25.53;;;11.33;;
483;SDS011;228;48.922;12.198;2023-03-05T11:31:23;20.77;;;9.77;;
483;SDS011;228;48.922;12.198;2023-03-05T11:33:59;24.80;;;11.03;;
483;SDS011;228;48.922;12.198;2023-03-05T11:39:21;26.37;;;11.30;;
483;SDS011;228;48.922;12.198;2023-03-05T11:44:25;20.70;;;10.00;;
483;SDS011;228;48.922;12.198;2023-03-05T11:47:01;22.20;;;10.10;;
483;SDS011;228;48.922;12.198;2023-03-05T11:55:29;20.50;;;9.57;;
483;SDS011;228;48.922;12.198;2023-03-05T12:00:49;24.60;;;10.30;;
483;SDS011;228;48.922;12.198;2023-03-05T12:03:17;20.20;;;10.40;;
483;SDS011;228;48.922;12.198;2023-03-05T12:05:52;20.37;;;9.67;;
483;SDS011;228;48.922;12.198;2023-03-05T12:08:24;24.17;;;11.00;;
483;SDS011;228;48.922;12.198;2023-03-05T12:10:58;21.20;;;10.80;;
483;SDS011;228;48.922;12.198;2023-03-05T12:13:36;21.03;;;10.50;;
483;SDS011;228;48.922;12.198;2023-03-05T12:19:22;20.70;;;9.73;;
483;SDS011;228;48.922;12.198;2023-03-05T12:21:59;25.13;;;10.47;;
483;SDS011;228;48.922;12.198;2023-03-05T12:29:26;20.87;;;9.47;;
483;SDS011;228;48.922;12.198;2023-03-05T12:32:03;22.07;;;10.57;;
483;SDS011;228;48.922;12.198;2023-03-05T12:34:47;18.10;;;9.00;;
483;SDS011;228;48.922;12.198;2023-03-05T12:47:40;10.47;;;6.17;;
483;SDS011;228;48.922;12.198;2023-03-05T12:55:37;10.33;;;5.60;;
483;SDS011;228;48.922;12.198;2023-03-05T13:03:36;11.27;;;5.13;;
483;SDS011;228;48.922;12.198;2023-03-05T13:06:31;7.77;;;4.50;;
483;SDS011;228;48.922;12.198;2023-03-05T13:11:28;10.87;;;5.37;;
483;SDS011;228;48.922;12.198;2023-03-05T13:13:58;8.10;;;4.33;;
483;SDS011;228;48.922;12.198;2023-03-05T13:16:43;10.27;;;4.63;;
483;SDS011;228;48.922;12.198;2023-03-05T13:19:14;10.43;;;4.37;;
483;SDS011;228;48.922;12.198;2023-03-05T13:21:41;6.90;;;4.60;;
483;SDS011;228;48.922;12.198;2023-03-05T13:24:15;11.40;;;4.87;;
483;SDS011;228;48.922;12.198;2023-03-05T13:26:43;10.77;;;5.17;;
483;SDS011;228;48.922;12.198;2023-03-05T13:29:23;10.93;;;4.93;;
483;SDS011;228;48.922;12.198;2023-03-05T13:34:33;9.87;;;4.70;;
483;SDS011;228;48.922;12.198;2023-03-05T13:39:46;10.83;;;4.10;;
483;SDS011;228;48.922;12.198;2023-03-05T13:42:23;6.60;;;3.87;;
483;SDS011;228;48.922;12.198;2023-03-05T13:44:56;10.40;;;4.57;;
483;SDS011;228;48.922;12.198;2023-03-05T13:47:25;10.43;;;4.97;;
483;SDS011;228;48.922;12.198;2023-03-05T13:49:58;7.70;;;4.67;;
483;SDS011;228;48.922;12.198;2023-03-05T13:52:36;10.00;;;3.93;;
483;SDS011;228;48.922;12.198;2023-03-05T13:55:13;7.20;;;3.90;;
483;SDS011;228;48.922;12.198;2023-03-05T13:57:41;5.63;;;3.37;;
483;SDS011;228;48.922;12.198;2023-03-05T14:03:13;5.47;;;3.00;;
483;SDS011;228;48.922;12.198;2023-03-05T14:05:50;4.73;;;2.73;;
483;SDS011;228;48.922;12.198;2023-03-05T14:08:19;6.00;;;2.87;;
483;SDS011;228;48.922;12.198;2023-03-05T14:10:50;7.57;;;3.27;;
483;SDS011;228;48.922;12.198;2023-03-05T14:13:19;5.37;;;3.03;;
483;SDS011;228;48.922;12.198;2023-03-05T14:16:52;10.30;;;4.43;;
483;SDS011;228;48.922;12.198;2023-03-05T14:18:57;6.97;;;3.10;;
483;SDS011;228;48.922;12.198;2023-03-05T14:21:41;4.70;;;2.90;;
483;SDS011;228;48.922;12.198;2023-03-05T14:24:18;9.33;;;2.83;;
483;SDS011;228;48.922;12.198;2023-03-05T14:26:48;8.57;;;3.03;;
483;SDS011;228;48.922;12.198;2023-03-05T14:29:18;8.23;;;4.20;;
483;SDS011;228;48.922;12.198;2023-03-05T14:31:52;4.67;;;3.50;;
483;SDS011;228;48.922;12.198;2023-03-05T14:36:55;9.07;;;4.60;;
483;SDS011;228;48.922;12.198;2023-03-05T14:39:28;6.77;;;4.30;;
483;SDS011;228;48.922;12.198;2023-03-05T14:44:54;4.87;;;2.90;;
483;SDS011;228;48.922;12.198;2023-03-05T14:47:24;5.47;;;2.50;;
483;SDS011;228;48.922;12.198;2023-03-05T14:49:51;7.97;;;2.93;;
483;SDS011;228;48.922;12.198;2023-03-05T14:52:18;5.27;;;2.90;;
483;SDS011;228;48.922;12.198;2023-03-05T14:54:47;5.77;;;2.73;;
483;SDS011;228;48.922;12.198;2023-03-05T14:57:15;4.13;;;2.77;;
483;SDS011;228;48.922;12.198;2023-03-05T14:59:46;3.57;;;2.73;;
483;SDS011;228;48.922;12.198;2023-03-05T15:02:13;6.07;;;2.53;;
483;SDS011;228;48.922;12.198;2023-03-05T15:04:42;4.77;;;2.87;;
483;SDS011;228;48.922;12.198;2023-03-05T15:07:12;3.77;;;2.43;;
483;SDS011;228;48.922;12.198;2023-03-05T15:09:52;3.50;;;2.17;;
483;SDS011;228;48.922;12.198;2023-03-05T15:12:18;3.10;;;1.97;;
483;SDS011;228;48.922;12.198;2023-03-05T15:14:55;3.87;;;2.30;;
483;SDS011;228;48.922;12.198;2023-03-05T15:17:32;5.67;;;2.37;;
483;SDS011;228;48.922;12.198;2023-03-05T15:20:06;4.67;;;2.53;;
483;SDS011;228;48.922;12.198;2023-03-05T15:22:37;6.13;;;2.40;;
483;SDS011;228;48.922;12.198;2023-03-05T15:25:03;4.67;;;2.10;;
483;SDS011;228;48.922;12.198;2023-03-05T15:27:29;4.47;;;2.80;;
483;SDS011;228;48.922;12.198;2023-03-05T15:29:55;4.10;;;2.23;;
483;SDS011;228;48.922;12.198;2023-03-05T15:32:27;4.03;;;2.20;;
483;SDS011;228;48.922;12.198;2023-03-05T15:34:54;4.93;;;2.60;;
483;SDS011;228;48.922;12.198;2023-03-05T15:37:21;6.40;;;2.40;;
483;SDS011;228;48.922;12.198;2023-03-05T15:39:47;4.33;;;2.43;;
483;SDS011;228;48.922;12.198;2023-03-05T15:42:13;5.27;;;2.60;;
483;SDS011;228;48.922;12.198;2023-03-05T15:44:39;3.20;;;2.37;;
483;SDS011;228;48.922;12.198;2023-03-05T15:47:06;5.37;;;2.47;;
483;SDS011;228;48.922;12.198;2023-03-05T15:49:32;3.23;;;2.33;;
483;SDS011;228;48.922;12.198;2023-03-05T15:51:58;3.27;;;2.20;;
483;SDS011;228;48.922;12.198;2023-03-05T15:54:24;6.73;;;3.57;;
483;SDS011;228;48.922;12.198;2023-03-05T15:56:51;4.13;;;2.57;;
483;SDS011;228;48.922;12.198;2023-03-05T15:59:18;6.77;;;4.00;;
483;SDS011;228;48.922;12.198;2023-03-05T16:01:49;4.70;;;2.63;;
483;SDS011;228;48.922;12.198;2023-03-05T16:04:16;2.93;;;2.50;;
483;SDS011;228;48.922;12.198;2023-03-05T16:06:43;5.00;;;2.70;;
483;SDS011;228;48.922;12.198;2023-03-05T16:09:11;4.97;;;2.40;;
483;SDS011;228;48.922;12.198;2023-03-05T16:11:38;3.67;;;2.40;;
483;SDS011;228;48.922;12.198;2023-03-05T16:14:10;8.27;;;3.60;;
483;SDS011;228;48.922;12.198;2023-03-05T16:16:36;6.80;;;3.53;;
483;SDS011;228;48.922;12.198;2023-03-05T16:19:03;6.83;;;4.30;;
483;SDS011;228;48.922;12.198;2023-03-05T16:21:33;16.40;;;8.27;;
483;SDS011;228;48.922;12.198;2023-03-05T16:24:00;6.63;;;3.20;;
483;SDS011;228;48.922;12.198;2023-03-05T16:26:26;6.73;;;3.30;;
483;SDS011;228;48.922;12.198;2023-03-05T16:28:52;4.83;;;2.80;;
483;SDS011;228;48.922;12.198;2023-03-05T16:31:18;4.63;;;2.43;;
483;SDS011;228;48.922;12.198;2023-03-05T16:33:44;4.10;;;2.73;;
483;SDS011;228;48.922;12.198;2023-03-05T16:36:23;4.90;;;3.07;;
483;SDS011;228;48.922;12.198;2023-03-05T16:38:53;6.13;;;3.37;;
483;SDS011;228;48.922;12.198;2023-03-05T16:41:21;16.17;;;6.17;;
483;SDS011;228;48.922;12.198;2023-03-05T16:43:49;13.13;;;5.93;;
483;SDS011;228;48.922;12.198;2023-03-05T16:46:17;6.90;;;3.87;;
483;SDS011;228;48.922;12.198;2023-03-05T16:48:44;5.47;;;3.40;;
483;SDS011;228;48.922;12.198;2023-03-05T16:51:10;7.40;;;4.23;;
483;SDS011;228;48.922;12.198;2023-03-05T16:53:37;11.63;;;5.40;;
483;SDS011;228;48.922;12.198;2023-03-05T16:56:05;6.50;;;4.57;;
483;SDS011;228;48.922;12.198;2023-03-05T16:58:33;10.50;;;5.43;;
483;SDS011;228;48.922;12.198;2023-03-05T17:01:00;5.33;;;3.43;;
483;SDS011;228;48.922;12.198;2023-03-05T17:03:27;7.17;;;3.40;;
483;SDS011;228;48.922;12.198;2023-03-05T17:05:54;5.37;;;2.80;;
483;SDS011;228;48.922;12.198;2023-03-05T17:08:20;5.53;;;2.93;;
483;SDS011;228;48.922;12.198;2023-03-05T17:10:48;8.37;;;3.83;;
483;SDS011;228;48.922;12.198;2023-03-05T17:13:14;5.90;;;3.30;;
483;SDS011;228;48.922;12.198;2023-03-05T17:15:40;4.63;;;3.17;;
483;SDS011;228;48.922;12.198;2023-03-05T17:18:06;5.20;;;3.30;;
483;SDS011;228;48.922;12.198;2023-03-05T17:20:32;5.43;;;3.30;;
483;SDS011;228;48.922;12.198;2023-03-05T17:23:00;5.47;;;3.50;;